RJFG(METAR)
05/21 17:00
METAR RJFG 210800Z 30015KT CAVOK 21/13 Q1005 RMK A2969=
戻る
トップページへ戻る
IMOC Co,.Ltd.